createdAt,value
2023-09-27T00:00:20.889Z,50.902397
2023-09-27T00:01:20.979Z,50.902401
2023-09-27T00:02:20.944Z,50.902401
2023-09-27T00:03:20.937Z,50.902370
2023-09-27T00:04:20.858Z,50.902382
2023-09-27T00:05:21.593Z,50.902374
2023-09-27T00:06:20.863Z,50.902386
2023-09-27T00:07:20.880Z,50.902378
2023-09-27T00:08:20.874Z,50.902393
2023-09-27T00:09:20.822Z,50.902382
2023-09-27T00:10:20.838Z,50.902382
2023-09-27T00:11:20.966Z,50.902351
2023-09-27T00:12:20.791Z,50.902382
2023-09-27T00:13:20.832Z,50.902355
2023-09-27T00:14:20.790Z,50.902390
2023-09-27T00:15:20.805Z,50.902367
2023-09-27T00:16:20.840Z,50.902401
2023-09-27T00:17:20.789Z,50.902386
2023-09-27T00:18:20.794Z,50.902386
2023-09-27T00:19:20.738Z,50.902386
2023-09-27T00:20:20.810Z,50.902390
2023-09-27T00:21:20.748Z,50.902378
2023-09-27T00:22:20.764Z,50.902374
2023-09-27T00:23:20.811Z,50.902374
2023-09-27T00:24:20.716Z,50.902386
2023-09-27T00:25:20.728Z,50.902363
2023-09-27T00:26:20.736Z,50.902386
2023-09-27T00:27:20.674Z,50.902428
2023-09-27T00:28:21.668Z,50.902405
2023-09-27T00:29:20.714Z,50.902409
2023-09-27T00:30:20.751Z,50.902412
2023-09-27T00:31:20.691Z,50.902409
2023-09-27T00:32:20.663Z,50.902431
2023-09-27T00:33:20.704Z,50.902409
2023-09-27T00:34:20.668Z,50.902370
2023-09-27T00:35:21.018Z,50.902386
2023-09-27T00:36:20.636Z,50.902439
2023-09-27T00:37:20.623Z,50.902412
2023-09-27T00:38:20.666Z,50.902424
2023-09-27T00:39:20.637Z,50.902412
2023-09-27T00:40:20.585Z,50.902451
2023-09-27T00:41:20.563Z,50.902447
2023-09-27T00:42:20.572Z,50.902390
2023-09-27T00:43:20.560Z,50.902393
2023-09-27T00:44:20.571Z,50.902405
2023-09-27T00:45:20.537Z,50.902390
2023-09-27T00:46:20.582Z,50.902344
2023-09-27T00:47:20.543Z,50.902348
2023-09-27T00:48:20.534Z,50.902386
2023-09-27T00:49:20.530Z,50.902393
2023-09-27T00:50:20.635Z,50.902420
2023-09-27T00:51:20.496Z,50.902397
2023-09-27T00:52:20.494Z,50.902397
2023-09-27T00:53:20.523Z,50.902390
2023-09-27T00:54:20.492Z,50.902409
2023-09-27T00:55:20.526Z,50.902397
2023-09-27T00:56:20.453Z,50.902382
2023-09-27T00:57:20.444Z,50.902390
2023-09-27T00:58:20.638Z,50.902405
2023-09-27T00:59:20.470Z,50.902401
2023-09-27T01:00:20.411Z,50.902393
2023-09-27T01:01:20.474Z,50.902409
2023-09-27T01:02:20.424Z,50.902405
2023-09-27T01:03:20.590Z,50.902351
2023-09-27T01:04:20.395Z,50.902378
2023-09-27T01:05:20.489Z,50.902355
2023-09-27T01:06:20.394Z,50.902370
2023-09-27T01:07:20.423Z,50.902378
2023-09-27T01:08:20.444Z,50.902409
2023-09-27T01:09:20.401Z,50.902401
2023-09-27T01:10:20.383Z,50.902386
2023-09-27T01:11:20.364Z,50.902390
2023-09-27T01:12:20.355Z,50.902397
2023-09-27T01:13:20.341Z,50.902416
2023-09-27T01:14:20.337Z,50.902416
2023-09-27T01:15:20.320Z,50.902428
2023-09-27T01:16:20.329Z,50.902420
2023-09-27T01:17:20.346Z,50.902435
2023-09-27T01:18:20.329Z,50.902470
2023-09-27T01:19:20.278Z,50.902439
2023-09-27T01:20:20.351Z,50.902428
2023-09-27T01:21:20.266Z,50.902405
2023-09-27T01:22:20.309Z,50.902416
2023-09-27T01:23:20.308Z,50.902405
2023-09-27T01:24:20.237Z,50.902420
2023-09-27T01:25:20.271Z,50.902428
2023-09-27T01:26:20.304Z,50.902435
2023-09-27T01:27:20.252Z,50.902435
2023-09-27T01:28:20.209Z,50.902420
2023-09-27T01:29:20.247Z,50.902424
2023-09-27T01:30:20.187Z,50.902428
2023-09-27T01:31:20.257Z,50.902462
2023-09-27T01:32:20.282Z,50.902424
2023-09-27T01:33:20.244Z,50.902435
2023-09-27T01:34:20.189Z,50.902458
2023-09-27T01:35:20.283Z,50.902424
2023-09-27T01:36:20.208Z,50.902428
2023-09-27T01:37:20.146Z,50.902393
2023-09-27T01:38:20.183Z,50.902424
2023-09-27T01:39:20.130Z,50.902431
2023-09-27T01:40:20.116Z,50.902405
2023-09-27T01:41:20.171Z,50.902405
2023-09-27T01:42:20.100Z,50.902401
2023-09-27T01:43:20.100Z,50.902416
2023-09-27T01:44:20.110Z,50.902424
2023-09-27T01:45:20.105Z,50.902416
2023-09-27T01:46:20.122Z,50.902409
2023-09-27T01:47:20.111Z,50.902451
2023-09-27T01:48:20.105Z,50.902435
2023-09-27T01:49:20.046Z,50.902428
2023-09-27T01:50:20.096Z,50.902431
2023-09-27T01:51:20.040Z,50.902401
2023-09-27T01:52:20.019Z,50.902416
2023-09-27T01:53:21.100Z,50.902412
2023-09-27T01:54:20.027Z,50.902401
2023-09-27T01:55:20.038Z,50.902393
2023-09-27T01:56:20.175Z,50.902409
2023-09-27T01:57:21.105Z,50.902416
2023-09-27T01:58:19.989Z,50.902424
2023-09-27T01:59:20.015Z,50.902405
2023-09-27T02:00:20.015Z,50.902405
2023-09-27T02:01:19.995Z,50.902382
2023-09-27T02:02:20.056Z,50.902393
2023-09-27T02:03:20.062Z,50.902401
2023-09-27T02:04:19.961Z,50.902374
2023-09-27T02:05:19.987Z,50.902412
2023-09-27T02:06:19.925Z,50.902416
2023-09-27T02:07:19.911Z,50.902405
2023-09-27T02:08:19.940Z,50.902431
2023-09-27T02:09:19.921Z,50.902412
2023-09-27T02:10:19.886Z,50.902431
2023-09-27T02:11:19.920Z,50.902397
2023-09-27T02:12:19.885Z,50.902428
2023-09-27T02:13:19.916Z,50.902435
2023-09-27T02:14:19.937Z,50.902424
2023-09-27T02:15:19.854Z,50.902409
2023-09-27T02:16:19.906Z,50.902409
2023-09-27T02:17:19.832Z,50.902428
2023-09-27T02:18:19.871Z,50.902397
2023-09-27T02:19:19.850Z,50.902420
2023-09-27T02:20:19.859Z,50.902435
2023-09-27T02:21:19.803Z,50.902428
2023-09-27T02:22:19.804Z,50.902420
2023-09-27T02:23:19.868Z,50.902416
2023-09-27T02:24:19.774Z,50.902428
2023-09-27T02:25:19.787Z,50.902439
2023-09-27T02:26:19.804Z,50.902435
2023-09-27T02:27:19.755Z,50.902443
2023-09-27T02:28:19.787Z,50.902466
2023-09-27T02:29:19.776Z,50.902462
2023-09-27T02:30:19.770Z,50.902470
2023-09-27T02:31:19.748Z,50.902470
2023-09-27T02:32:19.769Z,50.902439
2023-09-27T02:33:19.771Z,50.902424
2023-09-27T02:34:19.707Z,50.902428
2023-09-27T02:35:52.477Z,50.902435
2023-09-27T02:36:19.690Z,50.902397
2023-09-27T02:37:19.719Z,50.902435
2023-09-27T02:38:19.714Z,50.902454
2023-09-27T02:39:19.683Z,50.902470
2023-09-27T02:40:19.662Z,50.902435
2023-09-27T02:41:19.690Z,50.902424
2023-09-27T02:42:19.668Z,50.902435
2023-09-27T02:43:19.636Z,50.902447
2023-09-27T02:44:19.668Z,50.902451
2023-09-27T02:45:19.641Z,50.902451
2023-09-27T02:46:19.615Z,50.902454
2023-09-27T02:47:19.690Z,50.902458
2023-09-27T02:48:19.640Z,50.902466
2023-09-27T02:49:19.629Z,50.902454
2023-09-27T02:50:19.614Z,50.902451
2023-09-27T02:51:19.623Z,50.902466
2023-09-27T02:52:19.602Z,50.902451
2023-09-27T02:53:19.613Z,50.902443
2023-09-27T02:54:19.569Z,50.902443
2023-09-27T02:55:19.554Z,50.902458
2023-09-27T02:56:19.645Z,50.902462
2023-09-27T02:57:19.541Z,50.902462
2023-09-27T02:58:19.535Z,50.902439
2023-09-27T02:59:19.606Z,50.902443
2023-09-27T03:00:19.514Z,50.902439
2023-09-27T03:01:19.564Z,50.902447
2023-09-27T03:02:19.529Z,50.902451
2023-09-27T03:03:19.542Z,50.902428
2023-09-27T03:04:19.480Z,50.902431
2023-09-27T03:05:19.571Z,50.902451
2023-09-27T03:06:19.495Z,50.902458
2023-09-27T03:07:19.470Z,50.902443
2023-09-27T03:08:19.500Z,50.902443
2023-09-27T03:09:19.445Z,50.902451
2023-09-27T03:10:19.534Z,50.902454
2023-09-27T03:11:19.491Z,50.902458
2023-09-27T03:12:19.439Z,50.902481
2023-09-27T03:13:19.425Z,50.902489
2023-09-27T03:14:19.474Z,50.902485
2023-09-27T03:15:19.425Z,50.902443
2023-09-27T03:16:19.443Z,50.902458
2023-09-27T03:17:19.409Z,50.902435
2023-09-27T03:18:19.424Z,50.902431
2023-09-27T03:19:19.368Z,50.902462
2023-09-27T03:20:19.414Z,50.902466
2023-09-27T03:21:19.349Z,50.902458
2023-09-27T03:22:19.342Z,50.902462
2023-09-27T03:23:19.345Z,50.902496
2023-09-27T03:24:19.348Z,50.902473
2023-09-27T03:25:19.340Z,50.902386
2023-09-27T03:26:19.340Z,50.902424
2023-09-27T03:27:19.302Z,50.902439
2023-09-27T03:28:19.288Z,50.902435
2023-09-27T03:29:19.350Z,50.902466
2023-09-27T03:30:19.283Z,50.902473
2023-09-27T03:31:19.309Z,50.902466
2023-09-27T03:32:19.280Z,50.902454
2023-09-27T03:33:19.289Z,50.902458
2023-09-27T03:34:19.285Z,50.902473
2023-09-27T03:35:19.296Z,50.902405
2023-09-27T03:36:19.230Z,50.902420
2023-09-27T03:37:19.276Z,50.902397
2023-09-27T03:38:19.286Z,50.902416
2023-09-27T03:39:19.230Z,50.902439
2023-09-27T03:40:19.207Z,50.902416
2023-09-27T03:41:19.241Z,50.902431
2023-09-27T03:42:19.183Z,50.902431
2023-09-27T03:43:19.196Z,50.902462
2023-09-27T03:44:19.242Z,50.902412
2023-09-27T03:45:19.157Z,50.902393
2023-09-27T03:46:19.282Z,50.902370
2023-09-27T03:47:19.231Z,50.902401
2023-09-27T03:48:19.332Z,50.902405
2023-09-27T03:49:19.132Z,50.902428
2023-09-27T03:50:19.205Z,50.902428
2023-09-27T03:51:19.120Z,50.902412
2023-09-27T03:52:19.132Z,50.902428
2023-09-27T03:53:19.151Z,50.902397
2023-09-27T03:54:19.100Z,50.902405
2023-09-27T03:55:19.088Z,50.902409
2023-09-27T03:56:19.108Z,50.902390
2023-09-27T03:57:19.116Z,50.902409
2023-09-27T03:58:19.134Z,50.902416
2023-09-27T03:59:19.110Z,50.902393
2023-09-27T04:00:19.146Z,50.902443
2023-09-27T04:01:19.041Z,50.902386
2023-09-27T04:02:20.140Z,50.902397
2023-09-27T04:03:19.156Z,50.902405
2023-09-27T04:04:19.053Z,50.902424
2023-09-27T04:05:19.032Z,50.902378
2023-09-27T04:06:19.036Z,50.902351
2023-09-27T04:07:19.028Z,50.902386
2023-09-27T04:08:19.061Z,50.902370
2023-09-27T04:09:18.987Z,50.902397
2023-09-27T04:10:18.972Z,50.902367
2023-09-27T04:11:19.015Z,50.902397
2023-09-27T04:12:18.966Z,50.902405
2023-09-27T04:13:18.958Z,50.902412
2023-09-27T04:14:18.988Z,50.902431
2023-09-27T04:15:18.942Z,50.902420
2023-09-27T04:16:18.981Z,50.902401
2023-09-27T04:17:18.986Z,50.902405
2023-09-27T04:18:18.939Z,50.902412
2023-09-27T04:19:18.906Z,50.902390
2023-09-27T04:20:18.981Z,50.902386
2023-09-27T04:21:18.909Z,50.902401
2023-09-27T04:22:18.907Z,50.902390
2023-09-27T04:23:18.918Z,50.902401
2023-09-27T04:24:18.871Z,50.902370
2023-09-27T04:25:18.899Z,50.902370
2023-09-27T04:26:18.915Z,50.902412
2023-09-27T04:27:18.844Z,50.902390
2023-09-27T04:28:18.835Z,50.902397
2023-09-27T04:29:18.836Z,50.902405
2023-09-27T04:30:18.851Z,50.902401
2023-09-27T04:31:18.841Z,50.902390
2023-09-27T04:32:18.889Z,50.902397
2023-09-27T04:33:18.820Z,50.902401
2023-09-27T04:34:18.800Z,50.902401
2023-09-27T04:35:18.855Z,50.902409
2023-09-27T04:36:18.865Z,50.902412
2023-09-27T04:37:18.764Z,50.902435
2023-09-27T04:38:18.766Z,50.902416
2023-09-27T04:39:18.751Z,50.902401
2023-09-27T04:40:18.846Z,50.902386
2023-09-27T04:41:18.923Z,50.902386
2023-09-27T04:42:18.728Z,50.902382
2023-09-27T04:43:18.721Z,50.902378
2023-09-27T04:44:18.724Z,50.902374
2023-09-27T04:45:18.759Z,50.902435
2023-09-27T04:46:18.747Z,50.902412
2023-09-27T04:47:18.711Z,50.902405
2023-09-27T04:48:18.800Z,50.902393
2023-09-27T04:49:18.693Z,50.902382
2023-09-27T04:50:18.733Z,50.902386
2023-09-27T04:51:18.653Z,50.902409
2023-09-27T04:52:18.649Z,50.902397
2023-09-27T04:53:18.691Z,50.902390
2023-09-27T04:54:18.656Z,50.902397
2023-09-27T04:55:18.626Z,50.902401
2023-09-27T04:56:18.647Z,50.902378
2023-09-27T04:57:18.610Z,50.902382
2023-09-27T04:58:18.600Z,50.902386
2023-09-27T04:59:18.643Z,50.902382
2023-09-27T05:00:18.586Z,50.902412
2023-09-27T05:01:18.655Z,50.902412
2023-09-27T05:02:18.599Z,50.902409
2023-09-27T05:03:18.704Z,50.902390
2023-09-27T05:04:18.610Z,50.902405
2023-09-27T05:05:18.593Z,50.902405
2023-09-27T05:06:18.546Z,50.902397
2023-09-27T05:07:18.564Z,50.902397
2023-09-27T05:08:18.558Z,50.902435
2023-09-27T05:09:18.517Z,50.902409
2023-09-27T05:10:18.511Z,50.902428
2023-09-27T05:11:18.523Z,50.902424
2023-09-27T05:12:18.496Z,50.902386
2023-09-27T05:13:18.525Z,50.902370
2023-09-27T05:14:18.528Z,50.902401
2023-09-27T05:15:18.478Z,50.902435
2023-09-27T05:16:18.487Z,50.902416
2023-09-27T05:17:18.539Z,50.902397
2023-09-27T05:18:18.505Z,50.902393
2023-09-27T05:19:19.439Z,50.902405
2023-09-27T05:20:18.469Z,50.902424
2023-09-27T05:21:18.437Z,50.902428
2023-09-27T05:22:18.445Z,50.902431
2023-09-27T05:23:18.462Z,50.902409
2023-09-27T05:24:18.402Z,50.902401
2023-09-27T05:25:18.396Z,50.902386
2023-09-27T05:26:18.415Z,50.902390
2023-09-27T05:27:18.408Z,50.902386
2023-09-27T05:28:18.363Z,50.902435
2023-09-27T05:29:18.397Z,50.902466
2023-09-27T05:30:18.351Z,50.902370
2023-09-27T05:31:18.431Z,50.902397
2023-09-27T05:32:18.408Z,50.902401
2023-09-27T05:33:18.374Z,50.902382
2023-09-27T05:34:18.327Z,50.902424
2023-09-27T05:35:18.334Z,50.902466
2023-09-27T05:36:18.339Z,50.902481
2023-09-27T05:37:18.304Z,50.902523
2023-09-27T05:38:18.313Z,50.902473
2023-09-27T05:39:18.297Z,50.902473
2023-09-27T05:40:18.283Z,50.902458
2023-09-27T05:41:18.337Z,50.902424
2023-09-27T05:42:18.264Z,50.902454
2023-09-27T05:43:18.255Z,50.902466
2023-09-27T05:44:18.266Z,50.902428
2023-09-27T05:45:18.246Z,50.902393
2023-09-27T05:46:18.327Z,50.902454
2023-09-27T05:47:18.237Z,50.902447
2023-09-27T05:48:18.278Z,50.902401
2023-09-27T05:49:18.210Z,50.902412
2023-09-27T05:50:18.231Z,50.902431
2023-09-27T05:51:19.220Z,50.902412
2023-09-27T05:52:18.221Z,50.902409
2023-09-27T05:53:18.244Z,50.902420
2023-09-27T05:54:18.175Z,50.902439
2023-09-27T05:55:18.224Z,50.902431
2023-09-27T05:56:18.187Z,50.902435
2023-09-27T05:57:18.150Z,50.902412
2023-09-27T05:58:18.137Z,50.902420
2023-09-27T05:59:18.151Z,50.902401
2023-09-27T06:00:18.156Z,50.902401
2023-09-27T06:01:18.138Z,50.902420
2023-09-27T06:02:18.189Z,50.902409
2023-09-27T06:03:18.190Z,50.902409
2023-09-27T06:04:18.199Z,50.902405
2023-09-27T06:05:18.152Z,50.902374
2023-09-27T06:06:18.079Z,50.902382
2023-09-27T06:07:18.072Z,50.902405
2023-09-27T06:08:18.097Z,50.902401
2023-09-27T06:09:18.094Z,50.902412
2023-09-27T06:10:18.056Z,50.902386
2023-09-27T06:11:18.051Z,50.902401
2023-09-27T06:12:18.028Z,50.902378
2023-09-27T06:13:18.026Z,50.902370
2023-09-27T06:14:18.073Z,50.902378
2023-09-27T06:15:18.006Z,50.902367
2023-09-27T06:16:18.045Z,50.902386
2023-09-27T06:17:18.107Z,50.902401
2023-09-27T06:18:18.071Z,50.902374
2023-09-27T06:19:18.015Z,50.902397
2023-09-27T06:20:18.014Z,50.902409
2023-09-27T06:21:17.976Z,50.902416
2023-09-27T06:22:17.969Z,50.902416
2023-09-27T06:23:17.998Z,50.902424
2023-09-27T06:24:17.933Z,50.902412
2023-09-27T06:25:19.150Z,50.902412
2023-09-27T06:26:18.970Z,50.902409
2023-09-27T06:27:18.099Z,50.902401
2023-09-27T06:28:17.936Z,50.902405
2023-09-27T06:29:17.922Z,50.902355
2023-09-27T06:30:17.894Z,50.902393
2023-09-27T06:31:17.912Z,50.902405
2023-09-27T06:32:17.923Z,50.902409
2023-09-27T06:33:17.930Z,50.902416
2023-09-27T06:34:17.862Z,50.902420
2023-09-27T06:35:17.895Z,50.902386
2023-09-27T06:36:17.860Z,50.902378
2023-09-27T06:37:17.888Z,50.902374
2023-09-27T06:38:17.915Z,50.902382
2023-09-27T06:39:17.826Z,50.902355
2023-09-27T06:40:17.910Z,50.902393
2023-09-27T06:41:17.814Z,50.902424
2023-09-27T06:42:17.839Z,50.902428
2023-09-27T06:43:17.796Z,50.902397
2023-09-27T06:44:17.828Z,50.902378
2023-09-27T06:45:17.777Z,50.902451
2023-09-27T06:46:18.000Z,50.902443
2023-09-27T06:47:18.879Z,50.902412
2023-09-27T06:48:17.874Z,50.902420
2023-09-27T06:49:17.846Z,50.902424
2023-09-27T06:50:17.783Z,50.902431
2023-09-27T06:51:17.784Z,50.902378
2023-09-27T06:52:17.752Z,50.902386
2023-09-27T06:53:22.724Z,50.902355
2023-09-27T06:54:19.760Z,50.902382
2023-09-27T06:55:18.367Z,50.902397
2023-09-27T06:56:17.727Z,50.902412
2023-09-27T06:57:17.688Z,50.902393
2023-09-27T06:58:17.679Z,50.902447
2023-09-27T06:59:17.682Z,50.902420
2023-09-27T07:00:17.667Z,50.902397
2023-09-27T07:01:17.734Z,50.902424
2023-09-27T07:02:17.685Z,50.902409
2023-09-27T07:03:17.708Z,50.902393
2023-09-27T07:04:17.704Z,50.902355
2023-09-27T07:05:17.684Z,50.902382
2023-09-27T07:06:17.640Z,50.902363
2023-09-27T07:07:17.622Z,50.902340
2023-09-27T07:08:17.633Z,50.902332
2023-09-27T07:09:17.815Z,50.902309
2023-09-27T07:10:17.646Z,50.902306
2023-09-27T07:11:17.643Z,50.902363
2023-09-27T07:12:17.586Z,50.902424
2023-09-27T07:13:17.576Z,50.902462
2023-09-27T07:14:17.573Z,50.902462
2023-09-27T07:15:17.578Z,50.902409
2023-09-27T07:16:17.568Z,50.902424
2023-09-27T07:17:17.642Z,50.902309
2023-09-27T07:18:17.580Z,50.902313
2023-09-27T07:19:17.558Z,50.902420
2023-09-27T07:20:17.646Z,50.902439
2023-09-27T07:21:17.508Z,50.902470
2023-09-27T07:22:17.505Z,50.902428
2023-09-27T07:23:17.527Z,50.902382
2023-09-27T07:24:17.525Z,50.902451
2023-09-27T07:25:17.485Z,50.902500
2023-09-27T07:26:17.562Z,50.902416
2023-09-27T07:27:17.463Z,50.902378
2023-09-27T07:28:17.459Z,50.902390
2023-09-27T07:29:17.514Z,50.902462
2023-09-27T07:30:17.542Z,50.902447
2023-09-27T07:31:17.960Z,50.902416
2023-09-27T07:32:17.474Z,50.902428
2023-09-27T07:33:17.498Z,50.902409
2023-09-27T07:34:17.432Z,50.902431
2023-09-27T07:35:17.530Z,50.902458
2023-09-27T07:36:17.385Z,50.902489
2023-09-27T07:37:17.384Z,50.902496
2023-09-27T07:38:17.421Z,50.902466
2023-09-27T07:39:17.379Z,50.902496
2023-09-27T07:40:17.377Z,50.902454
2023-09-27T07:41:17.402Z,50.902477
2023-09-27T07:42:17.408Z,50.902489
2023-09-27T07:43:17.357Z,50.902508
2023-09-27T07:44:17.377Z,50.902447
2023-09-27T07:45:17.319Z,50.902435
2023-09-27T07:46:17.341Z,50.902447
2023-09-27T07:47:17.372Z,50.902409
2023-09-27T07:48:17.394Z,50.902405
2023-09-27T07:49:17.290Z,50.902477
2023-09-27T07:50:17.398Z,50.902515
2023-09-27T07:51:17.291Z,50.902515
2023-09-27T07:52:17.301Z,50.902454
2023-09-27T07:53:17.278Z,50.902443
2023-09-27T07:54:17.316Z,50.902454
2023-09-27T07:55:17.274Z,50.902424
2023-09-27T07:56:17.310Z,50.902439
2023-09-27T07:57:17.279Z,50.902458
2023-09-27T07:58:17.224Z,50.902473
2023-09-27T07:59:17.224Z,50.902477
2023-09-27T08:00:18.253Z,50.902458
2023-09-27T08:01:17.249Z,50.902416
2023-09-27T08:02:17.252Z,50.902409
2023-09-27T08:03:17.332Z,50.902405
2023-09-27T08:04:17.313Z,50.902420
2023-09-27T08:05:17.219Z,50.902405
2023-09-27T08:06:17.162Z,50.902420
2023-09-27T08:07:17.184Z,50.902424
2023-09-27T08:08:17.181Z,50.902409
2023-09-27T08:09:27.867Z,50.902401
2023-09-27T08:10:21.808Z,50.902416
2023-09-27T08:11:18.187Z,50.902412
2023-09-27T08:12:17.141Z,50.902412
2023-09-27T08:13:17.113Z,50.902401
2023-09-27T08:14:17.165Z,50.902397
2023-09-27T08:15:17.104Z,50.902397
2023-09-27T08:16:17.142Z,50.902424
2023-09-27T08:17:17.159Z,50.902370
2023-09-27T08:18:17.183Z,50.902428
2023-09-27T08:19:17.062Z,50.902393
2023-09-27T08:20:17.112Z,50.902363
2023-09-27T08:21:17.085Z,50.902424
2023-09-27T08:22:17.043Z,50.902431
2023-09-27T08:23:17.091Z,50.902405
2023-09-27T08:24:17.035Z,50.902435
2023-09-27T08:25:17.217Z,50.902428
2023-09-27T08:26:17.082Z,50.902443
2023-09-27T08:27:17.010Z,50.902493
2023-09-27T08:28:16.984Z,50.902451
2023-09-27T08:29:17.071Z,50.902428
2023-09-27T08:30:17.010Z,50.902439
2023-09-27T08:31:17.062Z,50.902412
2023-09-27T08:32:16.988Z,50.902428
2023-09-27T08:33:16.992Z,50.902454
2023-09-27T08:34:16.942Z,50.902416
2023-09-27T08:35:48.903Z,50.902454
2023-09-27T08:36:16.937Z,50.902451
2023-09-27T08:37:16.964Z,50.902412
2023-09-27T08:38:16.930Z,50.902367
2023-09-27T08:39:16.921Z,50.902344
2023-09-27T08:40:16.938Z,50.902370
2023-09-27T08:41:16.954Z,50.902367
2023-09-27T08:42:16.901Z,50.902405
2023-09-27T08:43:16.885Z,50.902466
2023-09-27T08:44:16.959Z,50.902496
2023-09-27T08:45:16.909Z,50.902420
2023-09-27T08:46:16.934Z,50.902485
2023-09-27T08:47:16.878Z,50.902382
2023-09-27T08:48:16.856Z,50.902378
2023-09-27T08:49:16.864Z,50.902382
2023-09-27T08:50:16.869Z,50.902355
2023-09-27T08:51:16.822Z,50.902374
2023-09-27T08:52:16.808Z,50.902424
2023-09-27T08:53:16.939Z,50.902412
2023-09-27T08:54:16.838Z,50.902416
2023-09-27T08:55:16.804Z,50.902416
2023-09-27T08:56:16.818Z,50.902416
2023-09-27T08:57:16.774Z,50.902409
2023-09-27T08:58:17.737Z,50.902428
2023-09-27T08:59:16.801Z,50.902424
2023-09-27T09:00:16.818Z,50.902435
2023-09-27T09:01:16.783Z,50.902435
2023-09-27T09:02:16.780Z,50.902409
2023-09-27T09:03:16.872Z,50.902431
2023-09-27T09:04:16.850Z,50.902416
2023-09-27T09:05:16.768Z,50.902412
2023-09-27T09:06:16.704Z,50.902504
2023-09-27T09:07:16.706Z,50.902447
2023-09-27T09:08:21.206Z,50.902428
2023-09-27T09:09:17.741Z,50.902405
2023-09-27T09:10:16.677Z,50.902405
2023-09-27T09:11:16.711Z,50.902412
2023-09-27T09:12:16.678Z,50.902409
2023-09-27T09:13:18.057Z,50.902390
2023-09-27T09:14:16.674Z,50.902393
2023-09-27T09:15:16.663Z,50.902393
2023-09-27T09:16:16.678Z,50.902393
2023-09-27T09:17:16.620Z,50.902401
2023-09-27T09:18:16.748Z,50.902401
2023-09-27T09:19:17.698Z,50.902401
2023-09-27T09:20:16.677Z,50.902393
2023-09-27T09:21:16.586Z,50.902397
2023-09-27T09:22:16.631Z,50.902420
2023-09-27T09:23:16.628Z,50.902420
2023-09-27T09:24:16.565Z,50.902420
2023-09-27T09:25:16.569Z,50.902416
2023-09-27T09:26:16.581Z,50.902420
2023-09-27T09:27:17.668Z,50.902416
2023-09-27T09:28:17.528Z,50.902401
2023-09-27T09:29:16.563Z,50.902401
2023-09-27T09:30:16.518Z,50.902405
2023-09-27T09:31:16.528Z,50.902409
2023-09-27T09:32:16.549Z,50.902397
2023-09-27T09:33:16.580Z,50.902393
2023-09-27T09:34:16.488Z,50.902401
2023-09-27T09:35:16.491Z,50.902439
2023-09-27T09:36:16.491Z,50.902424
2023-09-27T09:37:16.483Z,50.902420
2023-09-27T09:38:16.484Z,50.902412
2023-09-27T09:39:16.458Z,50.902405
2023-09-27T09:40:16.631Z,50.902409
2023-09-27T09:41:16.487Z,50.902401
2023-09-27T09:42:16.440Z,50.902409
2023-09-27T09:43:16.433Z,50.902409
2023-09-27T09:44:16.462Z,50.902409
2023-09-27T09:45:16.399Z,50.902386
2023-09-27T09:46:16.468Z,50.902405
2023-09-27T09:47:16.413Z,50.902397
2023-09-27T09:48:16.379Z,50.902390
2023-09-27T09:49:16.384Z,50.902397
2023-09-27T09:50:16.438Z,50.902409
2023-09-27T09:51:16.379Z,50.902401
2023-09-27T09:52:16.355Z,50.902443
2023-09-27T09:53:16.428Z,50.902401
2023-09-27T09:54:16.328Z,50.902409
2023-09-27T09:55:26.345Z,50.902355
2023-09-27T09:57:28.022Z,50.902390
2023-09-27T09:58:18.340Z,50.902336
2023-09-27T09:59:16.323Z,50.902374
2023-09-27T10:00:16.321Z,50.902382
2023-09-27T10:01:16.321Z,50.902409
2023-09-27T10:02:16.272Z,50.902409
2023-09-27T10:03:16.287Z,50.902397
2023-09-27T10:04:16.334Z,50.902386
2023-09-27T10:05:16.349Z,50.902386
2023-09-27T10:06:16.284Z,50.902317
2023-09-27T10:07:16.238Z,50.902340
2023-09-27T10:08:16.260Z,50.902340
2023-09-27T10:09:17.038Z,50.902454
2023-09-27T10:10:16.220Z,50.902328
2023-09-27T10:11:16.256Z,50.902355
2023-09-27T10:12:16.197Z,50.902264
2023-09-27T10:13:16.199Z,50.902229
2023-09-27T10:14:16.251Z,50.902336
2023-09-27T10:15:16.194Z,50.902348
2023-09-27T10:16:16.202Z,50.902363
2023-09-27T10:17:16.206Z,50.902378
2023-09-27T10:18:16.184Z,50.902374
2023-09-27T10:19:16.166Z,50.902401
2023-09-27T10:20:16.205Z,50.902370
2023-09-27T10:21:16.124Z,50.902340
2023-09-27T10:22:16.141Z,50.902382
2023-09-27T10:23:16.172Z,50.902355
2023-09-27T10:24:16.109Z,50.902298
2023-09-27T10:25:16.094Z,50.902355
2023-09-27T10:26:16.092Z,50.902378
2023-09-27T10:27:16.089Z,50.902405
2023-09-27T10:28:16.110Z,50.902378
2023-09-27T10:29:16.088Z,50.902428
2023-09-27T10:30:16.065Z,50.902435
2023-09-27T10:31:16.099Z,50.902416
2023-09-27T10:32:16.062Z,50.902477
2023-09-27T10:33:16.221Z,50.902435
2023-09-27T10:34:16.034Z,50.902405
2023-09-27T10:35:16.041Z,50.902397
2023-09-27T10:36:17.022Z,50.902416
2023-09-27T10:37:19.304Z,50.902348
2023-09-27T10:38:18.090Z,50.902344
2023-09-27T10:39:15.992Z,50.902409
2023-09-27T10:40:15.990Z,50.902393
2023-09-27T10:41:16.061Z,50.902401
2023-09-27T10:42:16.109Z,50.902378
2023-09-27T10:43:15.998Z,50.902397
2023-09-27T10:44:15.969Z,50.902382
2023-09-27T10:45:15.958Z,50.902370
2023-09-27T10:46:16.057Z,50.902367
2023-09-27T10:47:15.968Z,50.902378
2023-09-27T10:48:15.995Z,50.902386
2023-09-27T10:49:17.309Z,50.902397
2023-09-27T10:50:15.947Z,50.902416
2023-09-27T10:51:16.072Z,50.902382
2023-09-27T10:52:15.912Z,50.902370
2023-09-27T10:53:16.882Z,50.902367
2023-09-27T10:54:15.880Z,50.902405
2023-09-27T10:55:15.915Z,50.902397
2023-09-27T10:56:15.932Z,50.902359
2023-09-27T10:57:15.950Z,50.902374
2023-09-27T10:58:15.848Z,50.902386
2023-09-27T10:59:15.892Z,50.902390
2023-09-27T11:00:15.843Z,50.902401
2023-09-27T11:01:15.869Z,50.902374
2023-09-27T11:02:15.851Z,50.902374
2023-09-27T11:03:15.882Z,50.902390
2023-09-27T11:04:15.822Z,50.902397
2023-09-27T11:05:15.834Z,50.902401
2023-09-27T11:06:15.825Z,50.902412
2023-09-27T11:07:15.782Z,50.902416
2023-09-27T11:08:15.789Z,50.902431
2023-09-27T11:09:15.780Z,50.902431
2023-09-27T11:10:15.808Z,50.902390
2023-09-27T11:11:15.785Z,50.902386
2023-09-27T11:12:15.740Z,50.902431
2023-09-27T11:13:15.735Z,50.902386
2023-09-27T11:14:15.752Z,50.902390
2023-09-27T11:15:15.748Z,50.902370
2023-09-27T11:16:15.713Z,50.902363
2023-09-27T11:17:15.738Z,50.902397
2023-09-27T11:18:15.869Z,50.902435
2023-09-27T11:19:15.693Z,50.902458
2023-09-27T11:20:15.742Z,50.902416
2023-09-27T11:21:15.682Z,50.902409
2023-09-27T11:22:15.671Z,50.902367
2023-09-27T11:23:15.713Z,50.902451
2023-09-27T11:24:15.676Z,50.902443
2023-09-27T11:25:15.673Z,50.902420